Cedar City, Utah Weather observations

Data are for observation ending at time listed.
 Day   Time    Ave.   Ave.  Ave.  Vector   Max.   Stn.    Total    Solar   Ave.  
  of    of     Air    Rel.  Wind   Wind    Wind   Baro.  Precip.   Rad.    Soil  
Year   Day     Temp.  Hum.  Speed  Dir.    Gust   Pres.                    Temp. 
2016   (MST)    F      %     mph   deg.    mph     mb.     in.     W/m2     F   
------------------------------------------------------------------------------
 267   22:20   48.9    55    4.1    91      6.7   824.6    0.00       0    58.9
 267   22:30   48.7    55    4.4    92      7.5   824.7    0.00       0    58.8
 267   22:40   48.6    55    4.3    95      7.8   824.7    0.00       0    58.8
 267   22:50   47.9    57    4.5    90      7.6   824.7    0.00       0    58.8
 267   23:00   47.8    56    5.1   100     10.2   824.7    0.00       0    58.7
 267   23:10   47.8    56    5.0    93      8.3   824.8    0.00       0    58.7
 267   23:20   47.6    56    5.6    93      8.3   824.7    0.00       0    58.7
 267   23:30   47.2    57    6.1    94      9.4   824.6    0.00       0    58.7
 267   23:40   46.9    57    6.2    87     10.5   824.5    0.00       0    58.6
 267   23:50   46.9    56    5.9    85      9.6   824.5    0.00       0    58.6
 268    0:00   46.8    56    4.8    94      8.1   824.5    0.00       0    58.5
 268    0:10   46.8    56    4.9   101      9.6   824.5    0.00       0    58.5
 268    0:20   46.5    57    5.6    94      9.1   824.5    0.00       0    58.5
 268    0:30   46.3    56    5.3    92      9.3   824.6    0.00       0    58.4
 268    0:40   46.0    57    5.6    98      9.6   824.6    0.00       0    58.4
 268    0:50   46.1    57    4.5   102      8.2   824.7    0.00       0    58.4
 268    1:00   46.0    57    1.4   175      6.1   824.9    0.00       0    58.3
 268    1:10   45.4    60    1.5   134      3.5   825.2    0.00       0    58.2
 268    1:20   45.3    61    2.1    97      3.6   825.3    0.00       0    58.2
 268    1:30   45.6    57    4.2   105      8.3   825.3    0.00       0    58.2
 268    1:40   45.1    58    2.3   118      5.6   825.2    0.00       0    58.1
 268    1:50   44.9    60    0.7   136      1.7   825.2    0.00       0    58.1
 268    2:00   44.2    62    0.7   157      1.9   825.2    0.00       0    58.0
 268    2:10   44.0    64    1.8   131      2.8   825.1    0.00       0    58.0
 268    2:20   43.9    65    2.3   138      4.4   825.0    0.00       0    57.9
 268    2:30   43.7    64    1.7   121      4.7   824.9    0.00       0    57.9
 268    2:40   43.6    64    1.6   137      3.9   824.8    0.00       0    57.9
 268    2:50   44.0    61    2.7    96      5.8   824.8    0.00       0    57.8
 268    3:00   44.4    58    3.7    97      6.8   824.8    0.00       0    57.8
 268    3:10   44.5    59    2.0   122      6.9   824.7    0.00       0    57.8
 268    3:20   43.4    64    0.5   170      2.2   824.8    0.00       0    57.7
 268    3:30   42.7    65    1.3   200      2.2   824.9    0.00       0    57.7
 268    3:40   42.5    66    1.4   110      2.7   824.9    0.00       0    57.6
 268    3:50   43.0    64    0.4   157      1.1   825.0    0.00       0    57.5
 268    4:00   43.1    62    2.6    97      4.2   825.1    0.00       0    57.5
 268    4:10   43.2    63    2.5   145      5.0   825.1    0.00       0    57.4
 268    4:20   42.1    67    1.2   147      3.7   825.2    0.00       0    57.4
 268    4:30   42.2    68    0.6   204      2.1   825.3    0.00       0    57.3
 268    4:40   41.6    71    0.9   143      4.1   825.4    0.00       0    57.3
 268    4:50   42.7    64    2.7   105      5.0   825.4    0.00       0    57.2
 268    5:00   43.4    61    3.6    92      6.0   825.5    0.00       0    57.2
 268    5:10   43.6    60    4.3    91      6.2   825.6    0.00       0    57.1
 268    5:20   43.3    61    3.7    88      6.1   825.7    0.00       0    57.1
 268    5:30   43.2    62    2.3   105      4.5   825.9    0.00       0    57.0
 268    5:40   42.4    64    0.7   333      2.0   825.9    0.00       0    56.9
 268    5:50   42.2    64    2.6   106      5.8   825.9    0.00       0    56.9
 268    6:00   42.6    62    4.2    99      6.7   825.9    0.00       0    56.8
 268    6:10   42.4    63    4.2    97      7.5   826.0    0.00       0    56.8
 268    6:20   42.5    62    5.6    96      8.3   826.0    0.00       1    56.7
 268    6:30   42.5    62    6.0    92      9.3   826.1    0.00       3    56.6
 268    6:40   42.3    63    4.8    94      7.5   826.2    0.00       9    56.6
 268    6:50   42.5    63    5.3    97      8.0   826.3    0.00      11    56.5
 268    7:00   42.9    62    4.6    95      7.2   826.3    0.00      41    56.4
 268    7:10   44.0    60    5.6    96      8.6   826.5    0.00     108    56.4
 268    7:20   45.1    57    4.0    95      6.9   826.7    0.00     142    56.3
 268    7:30   46.4    54    3.5    88      5.6   826.7    0.00     173    56.3
 268    7:40   47.7    52    3.3    80      5.0   826.8    0.00     206    56.3
 268    7:50   48.4    50    3.5   100      5.9   826.9    0.00     236    56.2
 268    8:00   49.8    48    2.7    79      4.5   826.9    0.00     273    56.1
 268    8:10   51.0    47    2.0    66      4.1   826.9    0.00     310    56.1
 268    8:20   51.8    46    1.7    38      3.5   827.0    0.00     347    56.0
 268    8:30   52.4    46    1.7    37      3.8   827.1    0.00     380    56.0
 268    8:40   51.8    48    2.1   306      4.5   827.3    0.00     404    56.0
 268    8:50   52.9    48    1.3   336      3.7   827.3    0.00     437    55.9
 268    9:00   52.4    50    2.9   295      4.7   827.3    0.00     465    55.9
 268    9:10   52.3    55    2.4   322      5.6   827.4    0.00     501    55.9
 268    9:20   52.6    54    2.3   344      5.0   827.5    0.00     533    55.9
 268    9:30   54.0    51    2.1   358      5.9   827.6    0.00     560    55.8
 268    9:40   54.6    46    3.8    37      7.7   827.6    0.00     591    55.8
 268    9:50   55.0    47    3.5   343      7.0   827.6    0.00     610    55.8
 268   10:00   55.6    45    3.0   334      6.4   827.6    0.00     635    55.8
 268   10:10   56.9    43    3.0   338      5.3   827.8    0.00     659    55.9
 268   10:20   57.5    36    4.1    16      9.6   827.8    0.00     686    55.9
 268   10:30   57.4    34    5.4    20     10.7   827.9    0.00     707    55.8
 268   10:40   57.4    35    4.8    30     11.2   827.9    0.00     727    55.8
 268   10:50   57.3    35    6.0    44     12.8   827.9    0.00     747    55.8
 268   11:00   57.7    36    5.2    36      9.9   828.0    0.00     760    55.8
 268   11:10   58.0    36    5.5    23     12.4   827.9    0.00     773    55.8
 268   11:20   58.3    36    6.3    40     13.4   827.9    0.00     788    55.8
 268   11:30   58.8    38    4.4     6     10.3   828.0    0.00     799    55.9
 268   11:40   58.6    37    5.2    10     13.3   828.0    0.00     807    55.9
 268   11:50   58.9    37    5.0    41     12.1   828.1    0.00     816    55.9
 268   12:00   59.0    36    5.7    38     11.9   828.0    0.00     822    55.9
 268   12:10   59.1    36    4.3    14     11.8   828.1    0.00     822    55.9
 268   12:20   59.6    36    4.4   348      9.6   828.0    0.00     824    56.0
 268   12:30   59.3    36    5.5    33     12.6   828.0    0.00     824    56.0
 268   12:40   59.5    37    3.3    32     10.2   828.0    0.00     823    56.0
 268   12:50   60.9    37    4.0    16      8.8   828.1    0.00     811    56.0
 268   13:00   60.7    37    4.7    31     11.1   828.1    0.00     817    56.0
 268   13:10   60.5    35    5.3    46     11.1   828.0    0.00     813    56.1
 268   13:20   61.0    35    2.9    22     10.0   828.0    0.00     823    56.0
 268   13:30   60.9    36    3.8   337     10.0   827.9    0.00     777    56.2
 268   13:40   61.3    37    3.1   308      9.1   827.8    0.00     790    56.2
 268   13:50   61.9    36    3.2   351     11.5   827.7    0.00     767    56.3
 268   14:00   62.4    35    4.1     6     11.8   827.7    0.00     779    56.3
 268   14:10   62.3    35    5.0   346     13.2   827.7    0.00     752    56.4
 268   14:20   62.2    34    5.5   346     13.9   827.7    0.00     731    56.4
 268   14:30   62.0    33    4.9   352     10.9   827.8    0.00     698    56.5
 268   14:40   62.3    31    5.6    27     13.2   827.9    0.00     678    56.6
 268   14:50   62.5    32    4.4   328     10.3   827.9    0.00     626    56.6
 268   15:00   62.6    31    4.8    20     13.5   828.0    0.00     631    56.7
 268   15:10   62.8    31    4.5   342     13.2   828.1    0.00     611    56.7
 268   15:20   62.5    29    5.3   345     12.9   828.1    0.00     586    56.8
 268   15:30   62.6    28    5.5     4     11.6   828.1    0.00     517    56.8
 268   15:40   62.6    29    3.8   343      9.4   828.1    0.00     528    56.8
 268   15:50   62.5    29    5.7   352     15.2   828.3    0.00     253    56.9
 268   16:00   62.6    29    4.2   360     12.6   828.2    0.00      26    56.9
 268   16:10   62.3    28    4.5   352      9.9   828.2    0.00     107    57.0
 268   16:20   62.7    29    3.8     6     11.5   828.2    0.00     168    57.0
 268   16:30   62.4    28    5.5     6     13.4   828.2    0.00     371    57.0
 268   16:40   62.1    28    4.9    25     14.2   828.2    0.00     330    57.1
 268   16:50   62.0    28    4.4    13     11.6   828.2    0.00     121    57.1
 268   17:00   62.1    28    4.4    21     10.8   828.1    0.00      78    57.1
 268   17:10   61.8    28    5.2    12     12.3   828.1    0.00     101    57.1
 268   17:20   61.8    28    5.2    30     12.1   828.2    0.00     203    57.2
 268   17:30   61.7    31    3.8    18      7.9   828.3    0.00     165    57.3
 268   17:40   61.4    34    4.5    27     10.6   828.4    0.00     114    57.3
 268   17:50   60.9    34    4.5    48     11.7   828.4    0.00      88    57.3
 268   18:00   60.4    34    5.5    39     13.4   828.5    0.00      52    57.3
 268   18:10   60.2    34    6.1    43     12.1   828.7    0.00      32    57.4
 268   18:20   59.8    35    4.5    38     10.8   828.8    0.00      11    57.4
 268   18:30   59.3    34    5.2    29     13.4   829.0    0.00       6    57.4
 268   18:40   59.0    34    4.5    46      9.0   829.1    0.00       1    57.4
 268   18:50   58.6    36    4.6    59      8.4   829.1    0.00       0    57.4
 268   19:00   58.0    37    4.4    50     10.1   829.2    0.00       0    57.5
 268   19:10   57.6    37    3.4    42      6.9   829.2    0.00       0    57.5
 268   19:20   57.4    37    3.9    42      7.8   829.4    0.00       0    57.5
 268   19:30   57.2    37    4.3    50     14.2   829.5    0.00       0    57.5
 268   19:40   57.3    36    5.5    61      9.3   829.6    0.00       0    57.5
 268   19:50   57.0    36    2.9    28      6.0   829.7    0.00       0    57.5
 268   20:00   56.4    38    2.2    16      6.9   829.9    0.00       0    57.5
 268   20:10   56.7    35    3.4    35     10.9   829.9    0.00       0    57.5
 268   20:20   56.8    36    5.1    65     10.0   830.1    0.00       0    57.6
 268   20:30   56.5    35    5.1    44     11.6   830.2    0.00       0    57.6
 268   20:40   56.6    34    5.6    48     13.2   830.3    0.00       0    57.6
 268   20:50   56.8    33    4.3    44      8.6   830.5    0.00       0    57.6
 268   21:00   56.2    35    2.5    48      6.1   830.7    0.00       0    57.5
 268   21:10   55.8    37    4.6    58     11.1   830.8    0.00       0    57.5
 268   21:20   55.7    39    4.1    37      8.9   830.9    0.00       0    57.5
 268   21:30   55.2    40    2.3    29      5.6   830.9    0.00       0    57.5
 268   21:40   54.5    42    1.3    16      4.1   831.0    0.00       0    57.5
 268   21:50   53.7    43    3.0    44     12.5   831.0    0.00       0    57.5
 268   22:00   54.8    40    4.6    56      9.7   830.9    0.00       0    57.5
 268   22:10   54.9    40    5.0    47     11.5   830.8    0.00       0    57.5

Return to Cedar City, Utah graphs page.


Western Regional Climate Center,wrcc@dri.edu